createdAt,value
2023-03-08T00:00:18.660Z,93596.44
2023-03-08T00:02:46.356Z,93598.88
2023-03-08T00:05:14.088Z,93596.78
2023-03-08T00:07:41.764Z,93607.28
2023-03-08T00:10:11.113Z,93602.38
2023-03-08T00:12:38.851Z,93605.06
2023-03-08T00:15:07.512Z,93594.31
2023-03-08T00:17:38.912Z,93606.13
2023-03-08T00:20:08.030Z,93604.16
2023-03-08T00:22:36.849Z,93607.41
2023-03-08T00:25:04.992Z,93608.22
2023-03-08T00:27:32.723Z,93600.16
2023-03-08T00:30:00.333Z,93601.22
2023-03-08T00:32:28.237Z,93588.34
2023-03-08T00:34:57.319Z,93583.22
2023-03-08T00:37:25.077Z,93586.72
2023-03-08T00:39:53.796Z,93584.97
2023-03-08T00:42:22.063Z,93586.03
2023-03-08T00:44:50.018Z,93583.91
2023-03-08T00:47:18.392Z,93588.13
2023-03-08T00:49:46.094Z,93585.69
2023-03-08T00:52:15.150Z,93586.50
2023-03-08T00:54:43.065Z,93574.09
2023-03-08T00:57:10.770Z,93581.00
2023-03-08T00:59:38.629Z,93580.19
2023-03-08T01:02:06.880Z,93575.63
2023-03-08T01:04:34.660Z,93598.06
2023-03-08T01:07:02.412Z,93586.38
2023-03-08T01:09:31.416Z,93589.31
2023-03-08T01:11:59.070Z,93589.78
2023-03-08T01:14:26.833Z,93594.00
2023-03-08T01:16:54.473Z,93594.81
2023-03-08T01:19:22.687Z,93591.31
2023-03-08T01:21:50.396Z,93596.91
2023-03-08T01:24:18.037Z,93585.81
2023-03-08T01:26:47.045Z,93598.88
2023-03-08T01:29:14.779Z,93597.94
2023-03-08T01:31:42.433Z,93608.34
2023-03-08T01:34:10.875Z,93615.22
2023-03-08T01:36:38.523Z,93611.81
2023-03-08T01:39:06.166Z,93607.50
2023-03-08T01:41:33.840Z,93598.72
2023-03-08T01:44:02.955Z,93593.59
2023-03-08T01:46:31.560Z,93589.50
2023-03-08T01:49:05.327Z,93578.75
2023-03-08T01:51:37.056Z,93574.66
2023-03-08T01:54:08.684Z,93568.13
2023-03-08T01:56:36.980Z,93575.22
2023-03-08T01:59:06.051Z,93563.09
2023-03-08T02:01:35.109Z,93565.41
2023-03-08T02:04:02.818Z,93561.44
2023-03-08T02:06:30.500Z,93560.28
2023-03-08T02:09:03.427Z,93555.59
2023-03-08T02:11:31.254Z,93548.22
2023-03-08T02:13:58.937Z,93551.56
2023-03-08T02:16:27.946Z,93548.31
2023-03-08T02:18:58.012Z,93552.88
2023-03-08T02:21:26.479Z,93546.06
2023-03-08T02:23:55.807Z,93539.31
2023-03-08T02:26:23.752Z,93534.63
2023-03-08T02:28:51.393Z,93529.72
2023-03-08T02:31:19.147Z,93526.31
2023-03-08T02:33:46.830Z,93524.66
2023-03-08T02:36:14.491Z,93519.75
2023-03-08T02:38:42.164Z,93515.09
2023-03-08T02:41:11.167Z,93522.31
2023-03-08T02:43:38.820Z,93517.56
2023-03-08T02:46:06.876Z,93510.09
2023-03-08T02:48:34.623Z,93506.81
2023-03-08T02:51:02.268Z,93499.13
2023-03-08T02:53:30.441Z,93502.03
2023-03-08T02:55:58.196Z,93498.75
2023-03-08T02:58:27.375Z,93497.94
2023-03-08T03:00:54.984Z,93499.22
2023-03-08T03:03:22.688Z,93497.00
2023-03-08T03:05:50.340Z,93502.00
2023-03-08T03:08:18.107Z,93493.59
2023-03-08T03:10:45.750Z,93498.13
2023-03-08T03:13:13.477Z,93488.91
2023-03-08T03:15:42.580Z,93494.94
2023-03-08T03:18:10.244Z,93502.78
2023-03-08T03:20:37.878Z,93493.53
2023-03-08T03:23:06.437Z,93490.94
2023-03-08T03:25:37.864Z,93489.31
2023-03-08T03:28:05.829Z,93485.66
2023-03-08T03:30:33.518Z,93489.41
2023-03-08T03:33:02.528Z,93483.69
2023-03-08T03:35:30.233Z,93479.94
2023-03-08T03:37:57.927Z,93480.38
2023-03-08T03:40:25.561Z,93468.72
2023-03-08T03:42:53.218Z,93478.03
2023-03-08T03:45:20.875Z,93469.38
2023-03-08T03:47:48.503Z,93472.69
2023-03-08T03:50:18.202Z,93474.53
2023-03-08T03:52:45.837Z,93460.31
2023-03-08T03:55:13.467Z,93471.84
2023-03-08T03:57:41.347Z,93466.13
2023-03-08T04:00:10.163Z,93462.78
2023-03-08T04:02:37.784Z,93468.25
2023-03-08T04:05:06.083Z,93466.75
2023-03-08T04:07:35.329Z,93460.13
2023-03-08T04:10:03.389Z,93452.66
2023-03-08T04:12:31.045Z,93452.44
2023-03-08T04:14:58.629Z,93448.50
2023-03-08T04:17:26.369Z,93441.84
2023-03-08T04:19:53.956Z,93438.47
2023-03-08T04:22:21.574Z,93443.41
2023-03-08T04:24:50.523Z,93428.91
2023-03-08T04:27:18.137Z,93429.03
2023-03-08T04:29:45.712Z,93419.50
2023-03-08T04:32:13.373Z,93417.41
2023-03-08T04:34:42.906Z,93415.91
2023-03-08T04:37:12.295Z,93404.69
2023-03-08T04:39:39.986Z,93398.88
2023-03-08T04:42:09.154Z,93397.03
2023-03-08T04:44:36.833Z,93393.28
2023-03-08T04:47:04.533Z,93381.28
2023-03-08T04:49:32.152Z,93384.53
2023-03-08T04:51:59.801Z,93380.59
2023-03-08T04:54:27.765Z,93387.91
2023-03-08T04:56:55.445Z,93379.97
2023-03-08T04:59:24.509Z,93384.06
2023-03-08T05:01:52.166Z,93382.19
2023-03-08T05:04:19.862Z,93374.97
2023-03-08T05:06:47.534Z,93361.31
2023-03-08T05:09:15.276Z,93361.91
2023-03-08T05:11:42.929Z,93360.84
2023-03-08T05:14:10.783Z,93357.13
2023-03-08T05:16:39.816Z,93353.38
2023-03-08T05:19:07.507Z,93344.25
2023-03-08T05:21:35.218Z,93339.97
2023-03-08T05:24:02.850Z,93338.91
2023-03-08T05:26:30.517Z,93337.84
2023-03-08T05:28:58.497Z,93338.44
2023-03-08T05:31:26.229Z,93339.47
2023-03-08T05:33:55.215Z,93344.59
2023-03-08T05:36:22.891Z,93341.13
2023-03-08T05:38:54.174Z,93335.50
2023-03-08T05:41:22.348Z,93334.72
2023-03-08T05:43:50.042Z,93324.44
2023-03-08T05:46:19.515Z,93321.75
2023-03-08T05:48:47.327Z,93326.06
2023-03-08T05:51:17.628Z,93319.63
2023-03-08T05:53:45.924Z,93321.28
2023-03-08T05:56:15.262Z,93314.84
2023-03-08T05:58:47.749Z,93317.06
2023-03-08T06:01:17.432Z,93320.09
2023-03-08T06:03:45.206Z,93316.34
2023-03-08T06:06:13.065Z,93314.72
2023-03-08T06:08:42.537Z,93304.31
2023-03-08T06:11:10.571Z,93307.84
2023-03-08T06:13:38.446Z,93312.97
2023-03-08T06:16:06.841Z,93322.19
2023-03-08T06:18:34.708Z,93326.50
2023-03-08T06:21:03.940Z,93320.66
2023-03-08T06:23:33.129Z,93309.94
2023-03-08T06:26:02.376Z,93316.44
2023-03-08T06:28:31.041Z,93323.22
2023-03-08T06:30:59.136Z,93328.34
2023-03-08T06:33:28.533Z,93328.94
2023-03-08T06:35:58.069Z,93333.84
2023-03-08T06:38:27.570Z,93335.78
2023-03-08T06:40:56.810Z,93333.94
2023-03-08T06:43:26.289Z,93332.88
2023-03-08T06:45:53.963Z,93332.41
2023-03-08T06:48:21.986Z,93336.72
2023-03-08T06:50:49.694Z,93339.97
2023-03-08T06:53:17.358Z,93331.44
2023-03-08T06:55:44.982Z,93342.78
2023-03-08T06:58:12.597Z,93338.81
2023-03-08T07:00:41.542Z,93339.94
2023-03-08T07:03:09.142Z,93338.66
2023-03-08T07:05:36.732Z,93342.03
2023-03-08T07:08:04.632Z,93346.09
2023-03-08T07:10:32.501Z,93353.44
2023-03-08T07:13:00.111Z,93354.63
2023-03-08T07:15:27.785Z,93342.88
2023-03-08T07:17:57.851Z,93339.72
2023-03-08T07:20:27.539Z,93343.56
2023-03-08T07:22:55.202Z,93322.63
2023-03-08T07:25:23.172Z,93333.94
2023-03-08T07:27:50.787Z,93327.28
2023-03-08T07:30:18.567Z,93331.34
2023-03-08T07:32:46.489Z,93320.44
2023-03-08T07:35:16.580Z,93307.09
2023-03-08T07:37:45.914Z,93311.75
2023-03-08T07:40:15.692Z,93311.50
2023-03-08T07:42:43.649Z,93292.91
2023-03-08T07:45:12.319Z,93320.13
2023-03-08T07:47:40.502Z,93302.72
2023-03-08T07:50:09.721Z,93305.63
2023-03-08T07:52:38.851Z,93295.69
2023-03-08T07:55:07.752Z,93308.50
2023-03-08T07:57:35.475Z,93296.59
2023-03-08T08:00:07.486Z,93294.63
2023-03-08T08:02:35.408Z,93287.84
2023-03-08T08:05:04.012Z,93289.59
2023-03-08T08:07:31.939Z,93283.31
2023-03-08T08:10:01.009Z,93263.22
2023-03-08T08:12:28.707Z,93264.16
2023-03-08T08:14:56.335Z,93249.44
2023-03-08T08:17:24.005Z,93248.38
2023-03-08T08:19:51.863Z,93238.78
2023-03-08T08:22:19.614Z,93229.47
2023-03-08T08:24:47.355Z,93216.09
2023-03-08T08:27:16.393Z,93224.78
2023-03-08T08:29:46.113Z,93204.91
2023-03-08T08:32:13.878Z,93196.34
2023-03-08T08:34:41.526Z,93190.50
2023-03-08T08:37:09.562Z,93182.75
2023-03-08T08:39:37.309Z,93175.00
2023-03-08T08:42:05.178Z,93165.03
2023-03-08T08:44:34.178Z,93154.63
2023-03-08T08:47:01.839Z,93156.75
2023-03-08T08:49:29.463Z,93150.34
2023-03-08T08:51:57.174Z,93142.03
2023-03-08T08:54:24.855Z,93139.09
2023-03-08T08:56:52.540Z,93129.41
2023-03-08T08:59:20.249Z,93122.66
2023-03-08T09:01:49.250Z,93124.03
2023-03-08T09:04:17.825Z,93120.75
2023-03-08T09:06:45.505Z,93111.03
2023-03-08T09:09:13.178Z,93109.66
2023-03-08T09:11:53.738Z,93121.78
2023-03-08T09:14:22.359Z,93118.53
2023-03-08T09:16:52.566Z,93122.63
2023-03-08T09:19:20.480Z,93114.53
2023-03-08T09:21:48.246Z,93127.72
2023-03-08T09:24:16.690Z,93122.63
2023-03-08T09:26:44.299Z,93123.34
2023-03-08T09:29:12.560Z,93117.38
2023-03-08T09:31:42.317Z,93089.06
2023-03-08T09:34:13.498Z,93089.06
2023-03-08T09:36:41.346Z,93096.38
2023-03-08T09:39:09.984Z,93084.28
2023-03-08T09:41:49.882Z,93090.53
2023-03-08T09:44:26.955Z,93103.53
2023-03-08T09:46:57.514Z,93104.66
2023-03-08T09:49:30.717Z,93113.59
2023-03-08T09:52:03.717Z,93122.78
2023-03-08T09:54:33.065Z,93111.72
2023-03-08T09:57:02.898Z,93095.53
2023-03-08T09:59:34.708Z,93073.41
2023-03-08T10:02:06.008Z,93060.53
2023-03-08T10:04:42.917Z,93041.91
2023-03-08T10:07:20.044Z,93033.78
2023-03-08T10:09:50.604Z,93058.91
2023-03-08T10:12:22.758Z,93067.53
2023-03-08T10:14:51.488Z,93065.44
2023-03-08T10:17:22.248Z,93073.53
2023-03-08T10:19:55.216Z,93083.81
2023-03-08T10:22:27.444Z,93093.81
2023-03-08T10:24:55.601Z,93095.19
2023-03-08T10:27:25.383Z,93095.47
2023-03-08T10:29:54.724Z,93099.53
2023-03-08T10:32:22.875Z,93111.41
2023-03-08T10:34:52.202Z,93101.16
2023-03-08T10:37:21.587Z,93110.34
2023-03-08T10:39:52.929Z,93122.25
2023-03-08T10:42:22.750Z,93122.81
2023-03-08T10:44:56.111Z,93129.03
2023-03-08T10:47:25.488Z,93122.28
2023-03-08T10:50:07.315Z,93101.41
2023-03-08T10:52:35.393Z,93092.50
2023-03-08T10:55:04.919Z,93090.34
2023-03-08T10:57:32.863Z,93079.78
2023-03-08T11:00:07.583Z,93078.72
2023-03-08T11:02:35.300Z,93071.16
2023-03-08T11:05:03.033Z,93062.22
2023-03-08T11:07:33.935Z,93068.97
2023-03-08T11:10:17.933Z,93067.09
2023-03-08T11:12:46.380Z,93068.97
2023-03-08T11:15:15.297Z,93061.72
2023-03-08T11:17:49.251Z,93062.25
2023-03-08T11:20:20.288Z,93063.88
2023-03-08T11:23:00.306Z,93059.28
2023-03-08T11:25:36.429Z,93043.88
2023-03-08T11:28:34.624Z,93041.69
2023-03-08T11:31:14.954Z,93039.56
2023-03-08T11:33:53.389Z,93038.47
2023-03-08T11:36:24.738Z,93027.63
2023-03-08T11:38:59.547Z,93031.97
2023-03-08T11:41:34.500Z,93024.97
2023-03-08T11:44:14.266Z,93009.53
2023-03-08T11:46:51.911Z,93023.31
2023-03-08T11:49:35.658Z,93013.31
2023-03-08T11:52:11.390Z,93019.50
2023-03-08T11:54:49.096Z,93020.03
2023-03-08T11:57:17.800Z,93016.50
2023-03-08T11:59:48.719Z,93014.31
2023-03-08T12:02:20.043Z,93019.44
2023-03-08T12:04:56.677Z,93025.31
2023-03-08T12:07:28.015Z,93015.25
2023-03-08T12:10:01.304Z,93007.03
2023-03-08T12:12:32.514Z,93019.72
2023-03-08T12:15:06.748Z,93014.78
2023-03-08T12:17:39.561Z,93023.72
2023-03-08T12:20:10.869Z,93014.44
2023-03-08T12:22:46.264Z,93016.84
2023-03-08T12:25:24.102Z,93024.97
2023-03-08T12:27:56.279Z,93017.59
2023-03-08T12:30:26.141Z,93006.34
2023-03-08T12:32:56.430Z,93013.13
2023-03-08T12:35:32.496Z,93012.94
2023-03-08T12:38:02.504Z,93011.13
2023-03-08T12:40:40.857Z,93011.19
2023-03-08T12:43:11.498Z,92992.00
2023-03-08T12:45:41.636Z,92996.72
2023-03-08T12:48:17.330Z,93007.13
2023-03-08T12:50:47.329Z,93003.97
2023-03-08T12:53:24.868Z,93001.88
2023-03-08T12:56:06.058Z,93007.69
2023-03-08T12:58:35.097Z,93005.31
2023-03-08T13:01:05.672Z,93010.91
2023-03-08T13:03:38.791Z,93005.66
2023-03-08T13:06:17.553Z,93022.25
2023-03-08T13:08:51.510Z,93019.44
2023-03-08T13:11:21.120Z,93016.19
2023-03-08T13:13:52.813Z,93020.84
2023-03-08T13:16:32.250Z,93026.28
2023-03-08T13:19:10.333Z,92999.47
2023-03-08T13:21:41.719Z,93014.94
2023-03-08T13:24:14.565Z,93024.84
2023-03-08T13:26:55.420Z,93026.03
2023-03-08T13:29:23.173Z,93016.34
2023-03-08T13:31:51.391Z,93008.47
2023-03-08T13:34:27.110Z,93011.50
2023-03-08T13:36:55.856Z,93002.81
2023-03-08T13:39:25.147Z,93012.09
2023-03-08T13:41:54.582Z,93014.44
2023-03-08T13:44:24.148Z,93008.00
2023-03-08T13:46:53.357Z,93011.56
2023-03-08T13:49:23.503Z,93013.09
2023-03-08T13:51:52.457Z,93009.75
2023-03-08T13:54:29.295Z,92999.75
2023-03-08T13:56:59.952Z,93016.81
2023-03-08T13:59:28.098Z,92998.97
2023-03-08T14:01:56.796Z,92988.38
2023-03-08T14:04:26.457Z,92981.38
2023-03-08T14:06:55.495Z,92984.50
2023-03-08T14:09:23.517Z,92968.59
2023-03-08T14:11:58.912Z,92976.13
2023-03-08T14:14:30.293Z,92973.53
2023-03-08T14:16:58.165Z,92993.63
2023-03-08T14:19:27.072Z,92961.50
2023-03-08T14:21:57.185Z,92960.31
2023-03-08T14:24:27.002Z,92960.69
2023-03-08T14:26:56.687Z,92971.78
2023-03-08T14:29:26.841Z,92968.69
2023-03-08T14:32:00.802Z,92958.81
2023-03-08T14:34:33.729Z,92960.94
2023-03-08T14:37:03.668Z,92968.81
2023-03-08T14:39:32.884Z,92959.81
2023-03-08T14:42:10.259Z,92976.88
2023-03-08T14:44:39.454Z,92962.72
2023-03-08T14:47:11.648Z,92949.38
2023-03-08T14:49:39.150Z,92959.41
2023-03-08T14:52:09.395Z,92956.88
2023-03-08T14:54:38.495Z,92952.25
2023-03-08T14:57:16.746Z,92954.88
2023-03-08T14:59:46.331Z,92945.84
2023-03-08T15:02:15.675Z,92948.41
2023-03-08T15:04:43.996Z,92946.34
2023-03-08T15:07:18.000Z,92960.50
2023-03-08T15:09:45.765Z,92949.97
2023-03-08T15:12:13.798Z,92939.09
2023-03-08T15:14:41.416Z,92935.88
2023-03-08T15:17:10.466Z,92933.53
2023-03-08T15:19:38.129Z,92929.09
2023-03-08T15:22:06.840Z,92929.59
2023-03-08T15:24:34.918Z,92911.63
2023-03-08T15:27:02.510Z,92898.69
2023-03-08T15:29:32.657Z,92912.63
2023-03-08T15:32:00.772Z,92893.78
2023-03-08T15:34:29.802Z,92887.41
2023-03-08T15:36:57.487Z,92896.38
2023-03-08T15:39:25.219Z,92893.25
2023-03-08T15:41:53.027Z,92887.19
2023-03-08T15:44:20.733Z,92883.25
2023-03-08T15:46:49.884Z,92884.66
2023-03-08T15:49:18.588Z,92875.69
2023-03-08T15:51:47.592Z,92874.06
2023-03-08T15:54:15.292Z,92880.16
2023-03-08T15:56:42.962Z,92868.53
2023-03-08T15:59:10.608Z,92865.72
2023-03-08T16:01:38.277Z,92874.09
2023-03-08T16:04:05.949Z,92878.53
2023-03-08T16:06:33.549Z,92870.47
2023-03-08T16:09:02.566Z,92866.16
2023-03-08T16:11:31.377Z,92849.78
2023-03-08T16:14:00.045Z,92859.00
2023-03-08T16:16:42.670Z,92855.94
2023-03-08T16:19:12.852Z,92862.81
2023-03-08T16:21:40.482Z,92858.25
2023-03-08T16:24:09.610Z,92856.22
2023-03-08T16:26:37.299Z,92853.09
2023-03-08T16:29:05.039Z,92853.59
2023-03-08T16:31:33.578Z,92849.84
2023-03-08T16:34:03.330Z,92853.19
2023-03-08T16:36:31.020Z,92839.97
2023-03-08T16:38:58.710Z,92855.06
2023-03-08T16:41:30.047Z,92855.38
2023-03-08T16:43:58.048Z,92846.72
2023-03-08T16:46:25.813Z,92843.78
2023-03-08T16:48:55.022Z,92838.94
2023-03-08T16:51:24.655Z,92839.53
2023-03-08T16:53:52.476Z,92829.72
2023-03-08T16:56:20.734Z,92833.28
2023-03-08T16:58:49.765Z,92832.75
2023-03-08T17:01:19.277Z,92833.88
2023-03-08T17:03:47.097Z,92849.78
2023-03-08T17:06:17.134Z,92852.81
2023-03-08T17:08:44.923Z,92850.06
2023-03-08T17:11:16.083Z,92849.25
2023-03-08T17:13:44.012Z,92859.34
2023-03-08T17:16:16.158Z,92857.72
2023-03-08T17:18:43.629Z,92868.28
2023-03-08T17:21:11.338Z,92868.88
2023-03-08T17:23:39.021Z,92882.81
2023-03-08T17:26:07.985Z,92877.63
2023-03-08T17:28:35.756Z,92887.16
2023-03-08T17:31:08.580Z,92889.88
2023-03-08T17:33:37.822Z,92902.91
2023-03-08T17:36:13.151Z,92894.69
2023-03-08T17:38:42.348Z,92897.63
2023-03-08T17:41:12.399Z,92877.19
2023-03-08T17:43:41.265Z,92875.84
2023-03-08T17:46:13.305Z,92884.81
2023-03-08T17:48:42.578Z,92874.56
2023-03-08T17:51:12.031Z,92882.47
2023-03-08T17:53:40.370Z,92883.59
2023-03-08T17:56:09.454Z,92877.38
2023-03-08T17:58:37.352Z,92890.97
2023-03-08T18:01:09.400Z,92892.31
2023-03-08T18:03:37.227Z,92893.69
2023-03-08T18:06:07.147Z,92893.69
2023-03-08T18:08:35.892Z,92887.47
2023-03-08T18:11:03.848Z,92901.28
2023-03-08T18:13:31.513Z,92901.28
2023-03-08T18:15:59.210Z,92900.19
2023-03-08T18:18:27.705Z,92901.28
2023-03-08T18:20:58.967Z,92903.44
2023-03-08T18:23:33.078Z,92910.00
2023-03-08T18:26:01.172Z,92910.00
2023-03-08T18:28:28.842Z,92926.25
2023-03-08T18:30:56.537Z,92925.69
2023-03-08T18:33:24.971Z,92934.09
2023-03-08T18:35:59.172Z,92945.50
2023-03-08T18:38:27.064Z,92958.81
2023-03-08T18:40:56.062Z,92962.03
2023-03-08T18:43:25.236Z,92967.47
2023-03-08T18:45:53.778Z,92973.72
2023-03-08T18:48:22.178Z,92974.84
2023-03-08T18:50:50.270Z,92978.00
2023-03-08T18:53:18.095Z,92992.94
2023-03-08T18:55:54.334Z,92997.72
2023-03-08T18:58:24.499Z,93020.50
2023-03-08T19:00:52.543Z,93017.44
2023-03-08T19:03:20.377Z,93033.69
2023-03-08T19:05:47.965Z,93019.22
2023-03-08T19:08:15.784Z,93026.47
2023-03-08T19:10:43.417Z,93023.63
2023-03-08T19:13:11.232Z,93027.59
2023-03-08T19:15:40.592Z,93029.09
2023-03-08T19:18:08.461Z,93026.41
2023-03-08T19:20:37.094Z,93046.00
2023-03-08T19:23:04.857Z,93040.69
2023-03-08T19:25:33.107Z,93044.78
2023-03-08T19:28:00.785Z,93064.94
2023-03-08T19:30:29.227Z,93048.69
2023-03-08T19:32:58.244Z,93040.38
2023-03-08T19:35:26.003Z,93045.81
2023-03-08T19:37:53.643Z,93048.53
2023-03-08T19:40:21.447Z,93051.25
2023-03-08T19:42:52.449Z,93040.97
2023-03-08T19:45:20.089Z,93042.91
2023-03-08T19:47:47.763Z,93039.09
2023-03-08T19:50:17.323Z,93029.66
2023-03-08T19:52:44.992Z,93031.00
2023-03-08T19:55:12.779Z,93026.66
2023-03-08T19:57:41.988Z,93016.91
2023-03-08T20:00:10.738Z,93011.50
2023-03-08T20:02:40.579Z,93004.47
2023-03-08T20:05:08.900Z,93009.66
2023-03-08T20:07:38.002Z,93012.38
2023-03-08T20:10:15.678Z,93009.38
2023-03-08T20:12:43.626Z,93016.97
2023-03-08T20:15:12.046Z,93017.25
2023-03-08T20:17:39.803Z,93001.56
2023-03-08T20:20:08.978Z,92985.06
2023-03-08T20:22:37.982Z,92991.53
2023-03-08T20:25:06.572Z,92996.72
2023-03-08T20:27:34.204Z,92987.78
2023-03-08T20:30:01.859Z,92996.72
2023-03-08T20:32:29.549Z,92985.88
2023-03-08T20:34:57.264Z,92999.69
2023-03-08T20:37:24.963Z,93001.06
2023-03-08T20:39:54.670Z,92994.03
2023-03-08T20:42:22.563Z,92991.84
2023-03-08T20:44:50.328Z,92972.91
2023-03-08T20:47:18.212Z,92982.69
2023-03-08T20:49:45.812Z,92977.00
2023-03-08T20:52:13.548Z,92976.72
2023-03-08T20:54:41.201Z,92963.75
2023-03-08T20:57:10.375Z,92965.38
2023-03-08T20:59:38.139Z,92955.66
2023-03-08T21:02:05.820Z,92952.38
2023-03-08T21:04:33.426Z,92949.69
2023-03-08T21:07:01.029Z,92941.31
2023-03-08T21:09:28.760Z,92944.81
2023-03-08T21:11:56.421Z,92938.34
2023-03-08T21:14:25.979Z,92929.69
2023-03-08T21:16:53.557Z,92922.91
2023-03-08T21:19:22.083Z,92937.53
2023-03-08T21:21:55.051Z,92934.81
2023-03-08T21:24:23.576Z,92929.94
2023-03-08T21:26:51.973Z,92917.19
2023-03-08T21:29:21.036Z,92897.19
2023-03-08T21:31:51.791Z,92888.00
2023-03-08T21:34:20.470Z,92895.84
2023-03-08T21:36:48.352Z,92895.53
2023-03-08T21:39:16.045Z,92900.66
2023-03-08T21:41:45.358Z,92904.19
2023-03-08T21:44:15.491Z,92897.13
2023-03-08T21:46:43.898Z,92895.50
2023-03-08T21:49:17.277Z,92891.72
2023-03-08T21:51:45.077Z,92890.63
2023-03-08T21:54:12.750Z,92884.94
2023-03-08T21:56:40.431Z,92888.16
2023-03-08T21:59:08.083Z,92894.38
2023-03-08T22:01:35.759Z,92889.53
2023-03-08T22:04:04.594Z,92883.81
2023-03-08T22:06:33.616Z,92883.00
2023-03-08T22:09:01.830Z,92876.78
2023-03-08T22:11:29.512Z,92879.78
2023-03-08T22:13:58.723Z,92866.78
2023-03-08T22:16:27.748Z,92865.97
2023-03-08T22:18:56.418Z,92864.56
2023-03-08T22:21:24.597Z,92851.31
2023-03-08T22:23:54.609Z,92861.00
2023-03-08T22:26:23.344Z,92858.03
2023-03-08T22:28:51.494Z,92863.69
2023-03-08T22:31:20.592Z,92848.78
2023-03-08T22:33:48.881Z,92849.34
2023-03-08T22:36:18.374Z,92861.22
2023-03-08T22:38:46.172Z,92854.69
2023-03-08T22:41:19.935Z,92853.09
2023-03-08T22:43:47.908Z,92857.97
2023-03-08T22:46:20.163Z,92856.09
2023-03-08T22:48:48.713Z,92848.50
2023-03-08T22:51:17.447Z,92852.81
2023-03-08T22:53:45.343Z,92850.38
2023-03-08T22:56:20.217Z,92848.47
2023-03-08T22:58:47.976Z,92849.28
2023-03-08T23:01:16.453Z,92844.97
2023-03-08T23:03:44.636Z,92846.81
2023-03-08T23:06:12.281Z,92838.13
2023-03-08T23:08:40.063Z,92838.34
2023-03-08T23:11:07.985Z,92828.06
2023-03-08T23:13:38.056Z,92840.09
2023-03-08T23:16:07.574Z,92835.41
2023-03-08T23:18:35.561Z,92840.22
2023-03-08T23:21:04.508Z,92844.19
2023-03-08T23:23:32.295Z,92839.78
2023-03-08T23:26:00.026Z,92836.84
2023-03-08T23:28:27.713Z,92838.16
2023-03-08T23:30:56.743Z,92846.47
2023-03-08T23:33:24.331Z,92846.97
2023-03-08T23:35:51.955Z,92854.13
2023-03-08T23:38:19.660Z,92844.78
2023-03-08T23:40:47.269Z,92842.72
2023-03-08T23:43:15.055Z,92857.03
2023-03-08T23:45:42.755Z,92854.25
2023-03-08T23:48:11.759Z,92851.53
2023-03-08T23:50:39.516Z,92845.97
2023-03-08T23:53:07.195Z,92858.97
2023-03-08T23:55:37.775Z,92857.28
2023-03-08T23:58:05.439Z,92850.97
